sensor_id;sensor_type;location;lat;lon;timestamp;P1;durP1;ratioP1;P2;durP2;ratioP2
24677;SDS011;12800;53.094;8.778;2024-01-06T00:02:23;3.40;;;2.77;;
24677;SDS011;12800;53.094;8.778;2024-01-06T00:04:49;3.67;;;3.03;;
24677;SDS011;12800;53.094;8.778;2024-01-06T00:07:14;4.40;;;3.23;;
24677;SDS011;12800;53.094;8.778;2024-01-06T00:09:40;4.00;;;2.77;;
24677;SDS011;12800;53.094;8.778;2024-01-06T00:12:05;3.17;;;2.87;;
24677;SDS011;12800;53.094;8.778;2024-01-06T00:14:31;4.00;;;3.07;;
24677;SDS011;12800;53.094;8.778;2024-01-06T00:16:57;4.50;;;3.00;;
24677;SDS011;12800;53.094;8.778;2024-01-06T00:19:22;3.43;;;3.13;;
24677;SDS011;12800;53.094;8.778;2024-01-06T00:21:48;3.80;;;2.67;;
24677;SDS011;12800;53.094;8.778;2024-01-06T00:24:14;4.17;;;2.97;;
24677;SDS011;12800;53.094;8.778;2024-01-06T00:26:39;3.47;;;2.97;;
24677;SDS011;12800;53.094;8.778;2024-01-06T00:29:05;3.50;;;2.97;;
24677;SDS011;12800;53.094;8.778;2024-01-06T00:31:30;4.10;;;3.50;;
24677;SDS011;12800;53.094;8.778;2024-01-06T00:33:56;4.37;;;3.37;;
24677;SDS011;12800;53.094;8.778;2024-01-06T00:36:22;5.20;;;3.30;;
24677;SDS011;12800;53.094;8.778;2024-01-06T00:38:47;3.10;;;2.80;;
24677;SDS011;12800;53.094;8.778;2024-01-06T00:41:13;4.07;;;3.10;;
24677;SDS011;12800;53.094;8.778;2024-01-06T00:43:40;3.40;;;2.80;;
24677;SDS011;12800;53.094;8.778;2024-01-06T00:46:05;4.30;;;3.30;;
24677;SDS011;12800;53.094;8.778;2024-01-06T00:48:31;3.87;;;3.07;;
24677;SDS011;12800;53.094;8.778;2024-01-06T00:50:56;4.10;;;3.20;;
24677;SDS011;12800;53.094;8.778;2024-01-06T00:53:22;3.63;;;2.67;;
24677;SDS011;12800;53.094;8.778;2024-01-06T00:55:48;4.27;;;3.00;;
24677;SDS011;12800;53.094;8.778;2024-01-06T00:58:13;3.60;;;2.93;;
24677;SDS011;12800;53.094;8.778;2024-01-06T01:00:39;3.40;;;2.97;;
24677;SDS011;12800;53.094;8.778;2024-01-06T01:03:05;2.97;;;2.67;;
24677;SDS011;12800;53.094;8.778;2024-01-06T01:05:30;3.10;;;2.80;;
24677;SDS011;12800;53.094;8.778;2024-01-06T01:07:56;2.67;;;2.10;;
24677;SDS011;12800;53.094;8.778;2024-01-06T01:10:22;3.17;;;2.87;;
24677;SDS011;12800;53.094;8.778;2024-01-06T01:12:47;3.47;;;2.97;;
24677;SDS011;12800;53.094;8.778;2024-01-06T01:15:13;3.03;;;2.70;;
24677;SDS011;12800;53.094;8.778;2024-01-06T01:17:38;4.40;;;3.33;;
24677;SDS011;12800;53.094;8.778;2024-01-06T01:20:04;3.10;;;2.60;;
24677;SDS011;12800;53.094;8.778;2024-01-06T01:22:30;4.40;;;3.10;;
24677;SDS011;12800;53.094;8.778;2024-01-06T01:24:56;3.03;;;2.73;;
24677;SDS011;12800;53.094;8.778;2024-01-06T01:27:22;39.53;;;22.50;;
24677;SDS011;12800;53.094;8.778;2024-01-06T01:29:48;37.47;;;22.87;;
24677;SDS011;12800;53.094;8.778;2024-01-06T01:32:17;4.77;;;3.50;;
24677;SDS011;12800;53.094;8.778;2024-01-06T01:34:43;3.60;;;3.20;;
24677;SDS011;12800;53.094;8.778;2024-01-06T01:37:09;4.73;;;3.00;;
24677;SDS011;12800;53.094;8.778;2024-01-06T01:39:34;3.47;;;2.97;;
24677;SDS011;12800;53.094;8.778;2024-01-06T01:42:00;3.70;;;3.10;;
24677;SDS011;12800;53.094;8.778;2024-01-06T01:44:26;3.70;;;3.13;;
24677;SDS011;12800;53.094;8.778;2024-01-06T01:46:51;3.87;;;2.83;;
24677;SDS011;12800;53.094;8.778;2024-01-06T01:49:17;4.43;;;3.47;;
24677;SDS011;12800;53.094;8.778;2024-01-06T01:51:43;3.87;;;2.87;;
24677;SDS011;12800;53.094;8.778;2024-01-06T01:54:09;3.40;;;2.93;;
24677;SDS011;12800;53.094;8.778;2024-01-06T01:56:35;3.17;;;2.80;;
24677;SDS011;12800;53.094;8.778;2024-01-06T01:59:10;3.60;;;2.77;;
24677;SDS011;12800;53.094;8.778;2024-01-06T02:01:38;7.70;;;5.00;;
24677;SDS011;12800;53.094;8.778;2024-01-06T02:04:07;18.33;;;11.17;;
24677;SDS011;12800;53.094;8.778;2024-01-06T02:06:33;7.23;;;5.17;;
24677;SDS011;12800;53.094;8.778;2024-01-06T02:08:59;4.13;;;3.30;;
24677;SDS011;12800;53.094;8.778;2024-01-06T02:11:25;4.20;;;2.87;;
24677;SDS011;12800;53.094;8.778;2024-01-06T02:13:51;4.30;;;2.47;;
24677;SDS011;12800;53.094;8.778;2024-01-06T02:16:16;3.53;;;2.80;;
24677;SDS011;12800;53.094;8.778;2024-01-06T02:18:42;5.13;;;2.83;;
24677;SDS011;12800;53.094;8.778;2024-01-06T02:21:08;4.43;;;3.10;;
24677;SDS011;12800;53.094;8.778;2024-01-06T02:23:35;3.23;;;2.60;;
24677;SDS011;12800;53.094;8.778;2024-01-06T02:26:02;3.20;;;2.73;;
24677;SDS011;12800;53.094;8.778;2024-01-06T02:28:28;3.87;;;2.97;;
24677;SDS011;12800;53.094;8.778;2024-01-06T02:30:54;4.00;;;2.87;;
24677;SDS011;12800;53.094;8.778;2024-01-06T02:33:20;4.03;;;3.37;;
24677;SDS011;12800;53.094;8.778;2024-01-06T02:35:48;3.87;;;3.33;;
24677;SDS011;12800;53.094;8.778;2024-01-06T02:38:14;4.17;;;3.43;;
24677;SDS011;12800;53.094;8.778;2024-01-06T02:40:40;2.60;;;2.37;;
24677;SDS011;12800;53.094;8.778;2024-01-06T02:43:05;3.20;;;2.83;;
24677;SDS011;12800;53.094;8.778;2024-01-06T02:45:31;3.40;;;2.80;;
24677;SDS011;12800;53.094;8.778;2024-01-06T02:47:56;4.17;;;2.87;;
24677;SDS011;12800;53.094;8.778;2024-01-06T02:50:22;4.20;;;2.90;;
24677;SDS011;12800;53.094;8.778;2024-01-06T02:52:47;4.77;;;3.23;;
24677;SDS011;12800;53.094;8.778;2024-01-06T02:55:13;5.00;;;3.70;;
24677;SDS011;12800;53.094;8.778;2024-01-06T02:57:39;3.60;;;2.80;;
24677;SDS011;12800;53.094;8.778;2024-01-06T03:00:06;4.40;;;3.10;;
24677;SDS011;12800;53.094;8.778;2024-01-06T03:02:32;4.20;;;3.60;;
24677;SDS011;12800;53.094;8.778;2024-01-06T03:04:58;4.57;;;3.20;;
24677;SDS011;12800;53.094;8.778;2024-01-06T03:07:25;4.83;;;3.37;;
24677;SDS011;12800;53.094;8.778;2024-01-06T03:09:51;4.70;;;3.50;;
24677;SDS011;12800;53.094;8.778;2024-01-06T03:12:16;3.70;;;2.97;;
24677;SDS011;12800;53.094;8.778;2024-01-06T03:14:42;4.93;;;3.43;;
24677;SDS011;12800;53.094;8.778;2024-01-06T03:17:08;4.33;;;3.20;;
24677;SDS011;12800;53.094;8.778;2024-01-06T03:19:35;4.20;;;3.07;;
24677;SDS011;12800;53.094;8.778;2024-01-06T03:22:01;4.70;;;3.10;;
24677;SDS011;12800;53.094;8.778;2024-01-06T03:24:27;3.87;;;3.13;;
24677;SDS011;12800;53.094;8.778;2024-01-06T03:26:52;4.80;;;3.33;;
24677;SDS011;12800;53.094;8.778;2024-01-06T03:29:18;3.53;;;2.90;;
24677;SDS011;12800;53.094;8.778;2024-01-06T03:31:44;3.63;;;2.93;;
24677;SDS011;12800;53.094;8.778;2024-01-06T03:34:10;3.73;;;2.83;;
24677;SDS011;12800;53.094;8.778;2024-01-06T03:36:36;4.23;;;2.90;;
24677;SDS011;12800;53.094;8.778;2024-01-06T03:39:02;4.50;;;2.73;;
24677;SDS011;12800;53.094;8.778;2024-01-06T03:41:28;3.60;;;3.07;;
24677;SDS011;12800;53.094;8.778;2024-01-06T03:43:54;3.27;;;2.77;;
24677;SDS011;12800;53.094;8.778;2024-01-06T03:46:19;5.17;;;2.83;;
24677;SDS011;12800;53.094;8.778;2024-01-06T03:48:45;3.23;;;2.93;;
24677;SDS011;12800;53.094;8.778;2024-01-06T03:51:11;2.57;;;2.37;;
24677;SDS011;12800;53.094;8.778;2024-01-06T03:53:37;3.30;;;2.60;;
24677;SDS011;12800;53.094;8.778;2024-01-06T03:56:03;3.87;;;3.00;;
24677;SDS011;12800;53.094;8.778;2024-01-06T03:58:29;4.07;;;2.70;;
24677;SDS011;12800;53.094;8.778;2024-01-06T04:00:55;3.10;;;2.77;;
24677;SDS011;12800;53.094;8.778;2024-01-06T04:03:20;2.70;;;2.50;;
24677;SDS011;12800;53.094;8.778;2024-01-06T04:05:46;3.40;;;2.97;;
24677;SDS011;12800;53.094;8.778;2024-01-06T04:08:11;4.00;;;2.90;;
24677;SDS011;12800;53.094;8.778;2024-01-06T04:10:37;3.47;;;3.00;;
24677;SDS011;12800;53.094;8.778;2024-01-06T04:13:03;3.60;;;2.97;;
24677;SDS011;12800;53.094;8.778;2024-01-06T04:15:29;3.00;;;2.60;;
24677;SDS011;12800;53.094;8.778;2024-01-06T04:17:54;3.60;;;2.97;;
24677;SDS011;12800;53.094;8.778;2024-01-06T04:20:20;3.70;;;2.73;;
24677;SDS011;12800;53.094;8.778;2024-01-06T04:22:46;2.83;;;2.50;;
24677;SDS011;12800;53.094;8.778;2024-01-06T04:25:11;4.17;;;3.30;;
24677;SDS011;12800;53.094;8.778;2024-01-06T04:27:37;3.10;;;2.47;;
24677;SDS011;12800;53.094;8.778;2024-01-06T04:30:03;2.90;;;2.50;;
24677;SDS011;12800;53.094;8.778;2024-01-06T04:32:29;3.50;;;2.73;;
24677;SDS011;12800;53.094;8.778;2024-01-06T04:34:54;3.93;;;2.60;;
24677;SDS011;12800;53.094;8.778;2024-01-06T04:37:22;3.57;;;2.87;;
24677;SDS011;12800;53.094;8.778;2024-01-06T04:39:47;3.40;;;2.67;;
24677;SDS011;12800;53.094;8.778;2024-01-06T04:42:13;4.00;;;2.90;;
24677;SDS011;12800;53.094;8.778;2024-01-06T04:44:38;3.33;;;2.90;;
24677;SDS011;12800;53.094;8.778;2024-01-06T04:47:04;3.73;;;2.97;;
24677;SDS011;12800;53.094;8.778;2024-01-06T04:49:29;3.13;;;2.40;;
24677;SDS011;12800;53.094;8.778;2024-01-06T04:51:55;3.27;;;2.37;;
24677;SDS011;12800;53.094;8.778;2024-01-06T04:54:21;3.80;;;2.80;;
24677;SDS011;12800;53.094;8.778;2024-01-06T04:56:46;2.83;;;2.40;;
24677;SDS011;12800;53.094;8.778;2024-01-06T04:59:12;3.30;;;2.80;;
24677;SDS011;12800;53.094;8.778;2024-01-06T05:01:38;2.93;;;2.60;;
24677;SDS011;12800;53.094;8.778;2024-01-06T05:04:04;3.57;;;2.87;;
24677;SDS011;12800;53.094;8.778;2024-01-06T05:06:30;2.90;;;2.50;;
24677;SDS011;12800;53.094;8.778;2024-01-06T05:08:55;2.90;;;2.00;;
24677;SDS011;12800;53.094;8.778;2024-01-06T05:11:22;3.13;;;2.60;;
24677;SDS011;12800;53.094;8.778;2024-01-06T05:13:47;2.90;;;2.60;;
24677;SDS011;12800;53.094;8.778;2024-01-06T05:16:13;3.27;;;2.90;;
24677;SDS011;12800;53.094;8.778;2024-01-06T05:18:38;3.70;;;3.27;;
24677;SDS011;12800;53.094;8.778;2024-01-06T05:21:04;4.77;;;2.80;;
24677;SDS011;12800;53.094;8.778;2024-01-06T05:23:30;3.80;;;2.87;;
24677;SDS011;12800;53.094;8.778;2024-01-06T05:25:56;3.20;;;2.77;;
24677;SDS011;12800;53.094;8.778;2024-01-06T05:28:21;3.90;;;3.03;;
24677;SDS011;12800;53.094;8.778;2024-01-06T05:30:47;4.10;;;3.10;;
24677;SDS011;12800;53.094;8.778;2024-01-06T05:33:13;3.67;;;3.00;;
24677;SDS011;12800;53.094;8.778;2024-01-06T05:35:40;3.63;;;2.50;;
24677;SDS011;12800;53.094;8.778;2024-01-06T05:38:05;4.10;;;2.80;;
24677;SDS011;12800;53.094;8.778;2024-01-06T05:40:31;3.47;;;2.70;;
24677;SDS011;12800;53.094;8.778;2024-01-06T05:42:57;4.53;;;2.77;;
24677;SDS011;12800;53.094;8.778;2024-01-06T05:45:22;3.73;;;2.90;;
24677;SDS011;12800;53.094;8.778;2024-01-06T05:47:48;4.10;;;3.13;;
24677;SDS011;12800;53.094;8.778;2024-01-06T05:50:17;3.17;;;2.87;;
24677;SDS011;12800;53.094;8.778;2024-01-06T05:52:43;3.60;;;3.07;;
24677;SDS011;12800;53.094;8.778;2024-01-06T05:55:09;3.73;;;2.73;;
24677;SDS011;12800;53.094;8.778;2024-01-06T05:57:35;5.83;;;3.60;;
24677;SDS011;12800;53.094;8.778;2024-01-06T06:00:01;7.30;;;3.70;;
24677;SDS011;12800;53.094;8.778;2024-01-06T06:02:26;3.23;;;2.83;;
24677;SDS011;12800;53.094;8.778;2024-01-06T06:04:52;6.90;;;3.50;;
24677;SDS011;12800;53.094;8.778;2024-01-06T06:07:18;4.80;;;2.83;;
24677;SDS011;12800;53.094;8.778;2024-01-06T06:09:45;4.33;;;3.50;;
24677;SDS011;12800;53.094;8.778;2024-01-06T06:12:12;4.37;;;3.53;;
24677;SDS011;12800;53.094;8.778;2024-01-06T06:14:39;3.97;;;3.07;;
24677;SDS011;12800;53.094;8.778;2024-01-06T06:17:04;5.70;;;3.40;;
24677;SDS011;12800;53.094;8.778;2024-01-06T06:19:31;5.33;;;3.40;;
24677;SDS011;12800;53.094;8.778;2024-01-06T06:21:56;5.07;;;3.40;;
24677;SDS011;12800;53.094;8.778;2024-01-06T06:24:22;5.30;;;3.97;;
24677;SDS011;12800;53.094;8.778;2024-01-06T06:26:48;5.07;;;3.53;;
24677;SDS011;12800;53.094;8.778;2024-01-06T06:29:13;7.27;;;3.60;;
24677;SDS011;12800;53.094;8.778;2024-01-06T06:31:39;4.67;;;3.77;;
24677;SDS011;12800;53.094;8.778;2024-01-06T06:34:04;5.60;;;3.77;;
24677;SDS011;12800;53.094;8.778;2024-01-06T06:36:30;5.13;;;3.67;;
24677;SDS011;12800;53.094;8.778;2024-01-06T06:38:56;4.77;;;3.90;;
24677;SDS011;12800;53.094;8.778;2024-01-06T06:41:23;4.73;;;3.73;;
24677;SDS011;12800;53.094;8.778;2024-01-06T06:43:49;5.20;;;3.83;;
24677;SDS011;12800;53.094;8.778;2024-01-06T06:46:15;5.50;;;4.50;;
24677;SDS011;12800;53.094;8.778;2024-01-06T06:48:41;12.37;;;8.40;;
24677;SDS011;12800;53.094;8.778;2024-01-06T06:51:07;8.97;;;6.40;;
24677;SDS011;12800;53.094;8.778;2024-01-06T06:53:32;6.10;;;4.80;;
24677;SDS011;12800;53.094;8.778;2024-01-06T06:55:58;5.67;;;4.37;;
24677;SDS011;12800;53.094;8.778;2024-01-06T06:58:24;25.63;;;15.70;;
24677;SDS011;12800;53.094;8.778;2024-01-06T07:00:49;7.40;;;5.07;;
24677;SDS011;12800;53.094;8.778;2024-01-06T07:03:15;4.90;;;4.40;;
24677;SDS011;12800;53.094;8.778;2024-01-06T07:05:41;20.43;;;12.70;;
24677;SDS011;12800;53.094;8.778;2024-01-06T07:08:06;17.90;;;11.77;;
24677;SDS011;12800;53.094;8.778;2024-01-06T07:10:32;5.40;;;4.17;;
24677;SDS011;12800;53.094;8.778;2024-01-06T07:12:57;5.20;;;4.23;;
24677;SDS011;12800;53.094;8.778;2024-01-06T07:15:23;5.10;;;4.30;;
24677;SDS011;12800;53.094;8.778;2024-01-06T07:17:48;6.67;;;4.60;;
24677;SDS011;12800;53.094;8.778;2024-01-06T07:20:14;7.17;;;5.07;;
24677;SDS011;12800;53.094;8.778;2024-01-06T07:22:40;5.13;;;4.47;;
24677;SDS011;12800;53.094;8.778;2024-01-06T07:25:06;7.17;;;5.17;;
24677;SDS011;12800;53.094;8.778;2024-01-06T07:27:32;8.07;;;5.50;;
24677;SDS011;12800;53.094;8.778;2024-01-06T07:29:58;5.67;;;5.07;;
24677;SDS011;12800;53.094;8.778;2024-01-06T07:32:23;7.83;;;5.77;;
24677;SDS011;12800;53.094;8.778;2024-01-06T07:34:49;8.10;;;4.50;;
24677;SDS011;12800;53.094;8.778;2024-01-06T07:37:15;6.80;;;4.57;;
24677;SDS011;12800;53.094;8.778;2024-01-06T07:39:41;6.40;;;5.07;;
24677;SDS011;12800;53.094;8.778;2024-01-06T07:42:06;6.73;;;4.87;;
24677;SDS011;12800;53.094;8.778;2024-01-06T07:44:32;8.77;;;5.70;;
24677;SDS011;12800;53.094;8.778;2024-01-06T07:46:58;5.87;;;4.70;;
24677;SDS011;12800;53.094;8.778;2024-01-06T07:49:24;6.07;;;4.77;;
24677;SDS011;12800;53.094;8.778;2024-01-06T07:51:50;5.87;;;4.97;;
24677;SDS011;12800;53.094;8.778;2024-01-06T07:54:15;5.90;;;5.03;;
24677;SDS011;12800;53.094;8.778;2024-01-06T07:56:41;5.40;;;4.63;;
24677;SDS011;12800;53.094;8.778;2024-01-06T07:59:08;5.47;;;4.73;;
24677;SDS011;12800;53.094;8.778;2024-01-06T08:01:35;7.37;;;4.93;;
24677;SDS011;12800;53.094;8.778;2024-01-06T08:04:00;7.70;;;5.60;;
24677;SDS011;12800;53.094;8.778;2024-01-06T08:06:26;7.23;;;5.70;;
24677;SDS011;12800;53.094;8.778;2024-01-06T08:08:52;6.83;;;6.00;;
24677;SDS011;12800;53.094;8.778;2024-01-06T08:11:17;10.47;;;6.67;;
24677;SDS011;12800;53.094;8.778;2024-01-06T08:13:43;9.37;;;5.83;;
24677;SDS011;12800;53.094;8.778;2024-01-06T08:16:08;8.20;;;5.63;;
24677;SDS011;12800;53.094;8.778;2024-01-06T08:18:34;7.37;;;5.50;;
24677;SDS011;12800;53.094;8.778;2024-01-06T08:21:00;10.53;;;5.83;;
24677;SDS011;12800;53.094;8.778;2024-01-06T08:23:26;9.50;;;6.27;;
24677;SDS011;12800;53.094;8.778;2024-01-06T08:25:51;9.00;;;6.37;;
24677;SDS011;12800;53.094;8.778;2024-01-06T08:28:17;7.27;;;5.90;;
24677;SDS011;12800;53.094;8.778;2024-01-06T08:30:43;10.43;;;6.87;;
24677;SDS011;12800;53.094;8.778;2024-01-06T08:33:10;9.60;;;6.83;;
24677;SDS011;12800;53.094;8.778;2024-01-06T08:35:35;8.80;;;6.53;;
24677;SDS011;12800;53.094;8.778;2024-01-06T08:38:05;18.27;;;11.90;;
24677;SDS011;12800;53.094;8.778;2024-01-06T08:40:31;10.00;;;7.67;;
24677;SDS011;12800;53.094;8.778;2024-01-06T08:42:57;8.23;;;6.37;;
24677;SDS011;12800;53.094;8.778;2024-01-06T08:45:22;9.20;;;6.40;;
24677;SDS011;12800;53.094;8.778;2024-01-06T08:47:48;9.47;;;6.33;;
24677;SDS011;12800;53.094;8.778;2024-01-06T08:50:14;8.83;;;6.27;;
24677;SDS011;12800;53.094;8.778;2024-01-06T08:52:39;8.97;;;5.97;;
24677;SDS011;12800;53.094;8.778;2024-01-06T08:55:05;6.83;;;5.87;;
24677;SDS011;12800;53.094;8.778;2024-01-06T08:57:31;7.83;;;6.30;;
24677;SDS011;12800;53.094;8.778;2024-01-06T08:59:57;7.97;;;6.27;;
24677;SDS011;12800;53.094;8.778;2024-01-06T09:02:22;9.17;;;6.80;;
24677;SDS011;12800;53.094;8.778;2024-01-06T09:04:48;8.43;;;6.27;;
24677;SDS011;12800;53.094;8.778;2024-01-06T09:07:13;7.87;;;6.43;;
24677;SDS011;12800;53.094;8.778;2024-01-06T09:09:39;9.27;;;7.20;;
24677;SDS011;12800;53.094;8.778;2024-01-06T09:12:05;11.17;;;6.73;;
24677;SDS011;12800;53.094;8.778;2024-01-06T09:14:30;8.87;;;6.47;;
24677;SDS011;12800;53.094;8.778;2024-01-06T09:16:56;8.23;;;6.57;;
24677;SDS011;12800;53.094;8.778;2024-01-06T09:19:22;9.60;;;6.80;;
24677;SDS011;12800;53.094;8.778;2024-01-06T09:21:47;9.27;;;7.20;;
24677;SDS011;12800;53.094;8.778;2024-01-06T09:24:13;8.47;;;6.40;;
24677;SDS011;12800;53.094;8.778;2024-01-06T09:26:38;10.43;;;6.90;;
24677;SDS011;12800;53.094;8.778;2024-01-06T09:29:04;10.27;;;6.93;;
24677;SDS011;12800;53.094;8.778;2024-01-06T09:31:30;10.40;;;7.23;;
24677;SDS011;12800;53.094;8.778;2024-01-06T09:33:59;9.20;;;7.37;;
24677;SDS011;12800;53.094;8.778;2024-01-06T09:36:30;10.90;;;7.27;;
24677;SDS011;12800;53.094;8.778;2024-01-06T09:38:56;12.23;;;8.50;;
24677;SDS011;12800;53.094;8.778;2024-01-06T09:41:22;8.23;;;6.87;;
24677;SDS011;12800;53.094;8.778;2024-01-06T09:43:49;8.83;;;6.83;;
24677;SDS011;12800;53.094;8.778;2024-01-06T09:46:17;9.73;;;6.83;;
24677;SDS011;12800;53.094;8.778;2024-01-06T09:48:54;9.80;;;7.40;;
24677;SDS011;12800;53.094;8.778;2024-01-06T09:51:21;10.50;;;7.83;;
24677;SDS011;12800;53.094;8.778;2024-01-06T09:56:36;9.17;;;7.03;;
24677;SDS011;12800;53.094;8.778;2024-01-06T09:59:04;10.07;;;7.47;;
24677;SDS011;12800;53.094;8.778;2024-01-06T10:01:30;10.90;;;8.17;;
24677;SDS011;12800;53.094;8.778;2024-01-06T10:03:55;10.23;;;7.67;;
24677;SDS011;12800;53.094;8.778;2024-01-06T10:06:21;9.67;;;7.40;;
24677;SDS011;12800;53.094;8.778;2024-01-06T10:08:50;8.70;;;7.07;;
24677;SDS011;12800;53.094;8.778;2024-01-06T10:11:17;9.27;;;7.33;;
24677;SDS011;12800;53.094;8.778;2024-01-06T10:13:44;11.57;;;8.03;;
24677;SDS011;12800;53.094;8.778;2024-01-06T10:16:09;10.00;;;7.53;;
24677;SDS011;12800;53.094;8.778;2024-01-06T10:18:35;9.17;;;7.83;;
24677;SDS011;12800;53.094;8.778;2024-01-06T10:21:04;8.87;;;6.70;;
24677;SDS011;12800;53.094;8.778;2024-01-06T10:23:31;12.87;;;8.23;;
24677;SDS011;12800;53.094;8.778;2024-01-06T10:25:58;8.97;;;7.30;;
24677;SDS011;12800;53.094;8.778;2024-01-06T10:28:24;9.50;;;7.57;;
24677;SDS011;12800;53.094;8.778;2024-01-06T10:30:53;9.80;;;7.37;;
24677;SDS011;12800;53.094;8.778;2024-01-06T10:33:20;10.07;;;7.10;;
24677;SDS011;12800;53.094;8.778;2024-01-06T10:35:47;11.33;;;8.67;;
24677;SDS011;12800;53.094;8.778;2024-01-06T10:38:14;10.97;;;7.50;;
24677;SDS011;12800;53.094;8.778;2024-01-06T10:40:55;10.30;;;7.93;;
24677;SDS011;12800;53.094;8.778;2024-01-06T10:43:28;10.67;;;7.70;;
24677;SDS011;12800;53.094;8.778;2024-01-06T10:45:59;8.83;;;6.83;;
24677;SDS011;12800;53.094;8.778;2024-01-06T10:48:30;11.87;;;7.83;;
24677;SDS011;12800;53.094;8.778;2024-01-06T10:50:58;9.57;;;7.40;;
24677;SDS011;12800;53.094;8.778;2024-01-06T10:53:24;15.47;;;9.77;;
24677;SDS011;12800;53.094;8.778;2024-01-06T10:55:52;12.83;;;8.50;;
24677;SDS011;12800;53.094;8.778;2024-01-06T10:58:18;10.67;;;7.50;;
24677;SDS011;12800;53.094;8.778;2024-01-06T11:00:43;11.70;;;8.17;;
24677;SDS011;12800;53.094;8.778;2024-01-06T11:03:10;10.47;;;7.53;;
24677;SDS011;12800;53.094;8.778;2024-01-06T11:05:36;11.40;;;8.43;;
24677;SDS011;12800;53.094;8.778;2024-01-06T11:08:03;9.90;;;8.10;;
24677;SDS011;12800;53.094;8.778;2024-01-06T11:10:30;11.37;;;8.07;;
24677;SDS011;12800;53.094;8.778;2024-01-06T11:13:10;12.00;;;7.73;;
24677;SDS011;12800;53.094;8.778;2024-01-06T11:18:08;10.13;;;7.93;;
24677;SDS011;12800;53.094;8.778;2024-01-06T11:20:33;10.40;;;8.07;;
24677;SDS011;12800;53.094;8.778;2024-01-06T11:23:18;10.13;;;7.63;;
24677;SDS011;12800;53.094;8.778;2024-01-06T11:25:47;11.50;;;8.40;;
24677;SDS011;12800;53.094;8.778;2024-01-06T11:28:13;11.33;;;7.90;;
24677;SDS011;12800;53.094;8.778;2024-01-06T11:30:38;11.23;;;8.30;;
24677;SDS011;12800;53.094;8.778;2024-01-06T11:33:05;13.33;;;8.53;;
24677;SDS011;12800;53.094;8.778;2024-01-06T11:35:30;9.73;;;7.60;;
24677;SDS011;12800;53.094;8.778;2024-01-06T11:37:56;12.43;;;8.90;;
24677;SDS011;12800;53.094;8.778;2024-01-06T11:40:30;13.53;;;8.83;;
24677;SDS011;12800;53.094;8.778;2024-01-06T11:45:36;13.70;;;8.50;;
24677;SDS011;12800;53.094;8.778;2024-01-06T11:48:06;12.60;;;8.30;;
24677;SDS011;12800;53.094;8.778;2024-01-06T11:50:33;13.47;;;9.30;;
24677;SDS011;12800;53.094;8.778;2024-01-06T11:53:02;13.73;;;9.20;;
24677;SDS011;12800;53.094;8.778;2024-01-06T11:55:28;14.03;;;9.43;;
24677;SDS011;12800;53.094;8.778;2024-01-06T11:57:56;14.37;;;9.47;;
24677;SDS011;12800;53.094;8.778;2024-01-06T12:00:23;12.87;;;8.37;;
24677;SDS011;12800;53.094;8.778;2024-01-06T12:02:48;13.73;;;8.80;;
24677;SDS011;12800;53.094;8.778;2024-01-06T12:05:15;12.73;;;8.53;;
24677;SDS011;12800;53.094;8.778;2024-01-06T12:07:42;13.30;;;9.93;;
24677;SDS011;12800;53.094;8.778;2024-01-06T12:10:22;15.50;;;10.60;;
24677;SDS011;12800;53.094;8.778;2024-01-06T12:12:57;13.90;;;8.93;;
24677;SDS011;12800;53.094;8.778;2024-01-06T12:15:27;12.23;;;8.50;;
24677;SDS011;12800;53.094;8.778;2024-01-06T12:17:55;12.93;;;9.00;;
24677;SDS011;12800;53.094;8.778;2024-01-06T12:20:21;15.77;;;9.77;;
24677;SDS011;12800;53.094;8.778;2024-01-06T12:22:48;21.13;;;13.97;;
24677;SDS011;12800;53.094;8.778;2024-01-06T12:25:16;24.33;;;14.90;;
24677;SDS011;12800;53.094;8.778;2024-01-06T12:27:42;11.63;;;9.23;;
24677;SDS011;12800;53.094;8.778;2024-01-06T12:30:12;15.47;;;8.27;;
24677;SDS011;12800;53.094;8.778;2024-01-06T12:32:44;11.47;;;8.33;;
24677;SDS011;12800;53.094;8.778;2024-01-06T12:35:10;10.83;;;8.37;;
24677;SDS011;12800;53.094;8.778;2024-01-06T12:37:37;11.40;;;8.97;;
24677;SDS011;12800;53.094;8.778;2024-01-06T12:40:03;12.03;;;8.50;;
24677;SDS011;12800;53.094;8.778;2024-01-06T12:42:29;13.37;;;8.87;;
24677;SDS011;12800;53.094;8.778;2024-01-06T12:44:55;11.70;;;8.53;;
24677;SDS011;12800;53.094;8.778;2024-01-06T12:47:21;12.73;;;8.90;;
24677;SDS011;12800;53.094;8.778;2024-01-06T12:49:46;9.53;;;8.53;;
24677;SDS011;12800;53.094;8.778;2024-01-06T12:52:12;13.57;;;9.47;;
24677;SDS011;12800;53.094;8.778;2024-01-06T12:54:38;12.10;;;8.93;;
24677;SDS011;12800;53.094;8.778;2024-01-06T12:57:04;11.03;;;7.80;;
24677;SDS011;12800;53.094;8.778;2024-01-06T12:59:30;11.77;;;8.13;;
24677;SDS011;12800;53.094;8.778;2024-01-06T13:01:56;14.60;;;8.80;;
24677;SDS011;12800;53.094;8.778;2024-01-06T13:04:22;11.27;;;7.90;;
24677;SDS011;12800;53.094;8.778;2024-01-06T13:06:47;11.60;;;8.07;;
24677;SDS011;12800;53.094;8.778;2024-01-06T13:09:14;9.93;;;8.37;;
24677;SDS011;12800;53.094;8.778;2024-01-06T13:11:41;20.17;;;13.43;;
24677;SDS011;12800;53.094;8.778;2024-01-06T13:14:07;23.70;;;15.20;;
24677;SDS011;12800;53.094;8.778;2024-01-06T13:16:33;14.40;;;9.30;;
24677;SDS011;12800;53.094;8.778;2024-01-06T13:19:00;15.93;;;9.00;;
24677;SDS011;12800;53.094;8.778;2024-01-06T13:21:25;12.67;;;8.83;;
24677;SDS011;12800;53.094;8.778;2024-01-06T13:23:53;13.50;;;8.13;;
24677;SDS011;12800;53.094;8.778;2024-01-06T13:26:19;11.67;;;8.50;;
24677;SDS011;12800;53.094;8.778;2024-01-06T13:28:45;12.43;;;8.70;;
24677;SDS011;12800;53.094;8.778;2024-01-06T13:31:11;14.13;;;8.73;;
24677;SDS011;12800;53.094;8.778;2024-01-06T13:33:36;12.77;;;9.30;;
24677;SDS011;12800;53.094;8.778;2024-01-06T13:36:02;17.40;;;10.33;;
24677;SDS011;12800;53.094;8.778;2024-01-06T13:38:29;11.93;;;8.63;;
24677;SDS011;12800;53.094;8.778;2024-01-06T13:40:54;13.90;;;9.47;;
24677;SDS011;12800;53.094;8.778;2024-01-06T13:43:20;13.80;;;8.80;;
24677;SDS011;12800;53.094;8.778;2024-01-06T13:45:46;13.33;;;9.20;;
24677;SDS011;12800;53.094;8.778;2024-01-06T13:48:12;12.07;;;8.73;;
24677;SDS011;12800;53.094;8.778;2024-01-06T13:50:38;9.87;;;7.50;;
24677;SDS011;12800;53.094;8.778;2024-01-06T13:53:04;11.13;;;8.30;;
24677;SDS011;12800;53.094;8.778;2024-01-06T13:55:31;12.90;;;7.67;;
24677;SDS011;12800;53.094;8.778;2024-01-06T13:57:58;12.10;;;8.20;;
24677;SDS011;12800;53.094;8.778;2024-01-06T14:00:24;10.23;;;8.10;;
24677;SDS011;12800;53.094;8.778;2024-01-06T14:02:51;12.03;;;9.03;;
24677;SDS011;12800;53.094;8.778;2024-01-06T14:05:16;12.43;;;9.03;;
24677;SDS011;12800;53.094;8.778;2024-01-06T14:07:44;11.53;;;8.17;;
24677;SDS011;12800;53.094;8.778;2024-01-06T14:10:11;13.83;;;9.23;;
24677;SDS011;12800;53.094;8.778;2024-01-06T14:12:39;13.03;;;9.60;;
24677;SDS011;12800;53.094;8.778;2024-01-06T14:15:05;26.20;;;16.10;;
24677;SDS011;12800;53.094;8.778;2024-01-06T14:17:32;29.10;;;18.73;;
24677;SDS011;12800;53.094;8.778;2024-01-06T14:19:57;11.57;;;8.57;;
24677;SDS011;12800;53.094;8.778;2024-01-06T14:22:23;11.53;;;7.93;;
24677;SDS011;12800;53.094;8.778;2024-01-06T14:24:49;13.40;;;8.80;;
24677;SDS011;12800;53.094;8.778;2024-01-06T14:27:15;13.03;;;8.57;;
24677;SDS011;12800;53.094;8.778;2024-01-06T14:29:41;11.37;;;7.80;;
24677;SDS011;12800;53.094;8.778;2024-01-06T14:32:07;12.17;;;7.50;;
24677;SDS011;12800;53.094;8.778;2024-01-06T14:34:32;9.70;;;7.90;;
24677;SDS011;12800;53.094;8.778;2024-01-06T14:36:59;10.87;;;8.00;;
24677;SDS011;12800;53.094;8.778;2024-01-06T14:39:24;12.40;;;8.03;;
24677;SDS011;12800;53.094;8.778;2024-01-06T14:41:50;11.53;;;8.27;;
24677;SDS011;12800;53.094;8.778;2024-01-06T14:44:17;13.57;;;8.17;;
24677;SDS011;12800;53.094;8.778;2024-01-06T14:46:45;10.57;;;7.30;;